Terminal Aerodrome Forecast
Issued by NWS

Home | Current Version | Previous Version | Text Only | Print | Product List | Glossary On
Versions: 1 2 3 4 5 6 7 8 9 10 11 12 13 14 15 16 17
000
FTUS44 KCRP 210100 AAA
TAFLRD
TAF AMD
KLRD 210158Z 2102/2124 13015KT P6SM BKN030 BKN035
      TEMPO 2102/2105 SCT030 BKN035
     FM210900 14007KT P6SM OVC020
     FM211500 15012KT P6SM SCT025 BKN030
     FM211800 14008KT P6SM BKN040=

USA.gov is the U.S. government's official web portal to all federal, state and local government web resources and services.